Time;durP1;ratioP1;P1;durP2;ratioP2;P2;SDS_P1;SDS_P2;PMS_P1;PMS_P2;Temp;Humidity;BMP_temperature;BMP_pressure;BME280_temperature;BME280_humidity;BME280_pressure;Samples;Min_cycle;Max_cycle;Signal;HPM_P1;HPM_P2
2021/01/30 00:01:18;;;;;;;3.00;1.08;;;7.30;51.90;;;;;;5090269;28;20580;-73
2021/01/30 00:03:45;;;;;;;3.58;1.25;;;7.30;51.50;;;;;;5085779;28;20044;-73
2021/01/30 00:06:11;;;;;;;3.25;1.27;;;7.30;51.40;;;;;;5091586;28;20051;-73
2021/01/30 00:08:38;;;;;;;2.28;0.90;;;7.20;51.70;;;;;;5089676;28;20051;-73
2021/01/30 00:11:05;;;;;;;1.48;1.02;;;7.20;50.70;;;;;;5092923;28;20134;-74
2021/01/30 00:13:32;;;;;;;3.25;0.93;;;7.20;50.60;;;;;;5088907;28;20176;-73
2021/01/30 00:16:00;;;;;;;2.00;0.90;;;7.20;49.10;;;;;;5087501;28;20109;-74
2021/01/30 00:18:27;;;;;;;3.53;0.90;;;7.20;49.80;;;;;;5092469;28;20421;-73
2021/01/30 00:20:54;;;;;;;2.90;1.00;;;7.30;46.30;;;;;;5089667;28;20048;-73
2021/01/30 00:23:20;;;;;;;8.88;1.23;;;7.30;45.60;;;;;;5084326;28;20060;-72
2021/01/30 00:25:47;;;;;;;3.35;1.00;;;7.20;46.40;;;;;;5087411;28;20051;-72
2021/01/30 00:28:14;;;;;;;3.40;1.25;;;7.10;47.90;;;;;;5091253;28;20391;-73
2021/01/30 00:30:41;;;;;;;3.33;0.98;;;7.20;47.60;;;;;;5088042;28;20826;-72
2021/01/30 00:33:09;;;;;;;4.63;1.63;;;7.10;48.00;;;;;;5088055;28;20599;-73
2021/01/30 00:35:37;;;;;;;2.17;0.98;;;7.10;48.00;;;;;;5083389;28;20040;-73
2021/01/30 00:38:04;;;;;;;4.00;1.17;;;7.10;46.80;;;;;;5090699;28;20048;-75
2021/01/30 00:40:32;;;;;;;5.60;0.90;;;7.10;45.90;;;;;;5088147;28;20036;-72
2021/01/30 00:43:01;;;;;;;1.52;0.70;;;7.10;44.30;;;;;;5084707;28;20137;-73
2021/01/30 00:45:28;;;;;;;3.45;1.00;;;7.20;43.50;;;;;;5088300;28;20036;-72
2021/01/30 00:47:56;;;;;;;5.60;0.90;;;7.20;43.10;;;;;;5084491;28;20056;-73
2021/01/30 00:50:24;;;;;;;2.97;1.02;;;7.10;43.80;;;;;;5087799;28;20047;-72
2021/01/30 00:52:52;;;;;;;2.75;0.80;;;7.10;43.70;;;;;;5087249;28;20139;-74
2021/01/30 00:55:22;;;;;;;2.08;1.05;;;7.10;42.80;;;;;;5087073;28;20044;-73
2021/01/30 00:57:49;;;;;;;5.22;0.98;;;7.10;42.60;;;;;;5087226;28;20056;-73
2021/01/30 01:00:19;;;;;;;3.75;1.13;;;7.00;43.10;;;;;;5088067;28;20036;-73
2021/01/30 01:02:46;;;;;;;2.10;0.80;;;7.00;44.30;;;;;;5087304;28;20047;-72
2021/01/30 01:05:14;;;;;;;2.85;1.00;;;7.00;42.70;;;;;;5086566;28;20047;-73
2021/01/30 01:07:44;;;;;;;2.03;0.70;;;7.00;42.50;;;;;;5088696;28;20105;-73
2021/01/30 01:10:12;;;;;;;2.70;0.77;;;7.00;41.80;;;;;;5088192;28;20067;-74
2021/01/30 01:12:39;;;;;;;2.42;0.80;;;7.00;41.40;;;;;;5087476;28;20048;-74
2021/01/30 01:15:08;;;;;;;2.95;1.00;;;7.00;42.10;;;;;;5087959;28;20434;-74
2021/01/30 01:17:35;;;;;;;5.25;0.93;;;6.90;42.50;;;;;;5090039;28;20055;-74
2021/01/30 01:20:03;;;;;;;5.18;1.10;;;6.90;42.40;;;;;;5089373;28;20071;-74
2021/01/30 01:22:30;;;;;;;2.88;0.82;;;7.10;39.80;;;;;;5085904;28;20413;-74
2021/01/30 01:24:58;;;;;;;4.82;1.65;;;7.10;39.40;;;;;;5088538;28;20436;-73
2021/01/30 01:27:25;;;;;;;4.53;0.82;;;7.20;39.70;;;;;;5088471;28;20056;-73
2021/01/30 01:29:51;;;;;;;5.18;1.00;;;7.20;39.10;;;;;;5089883;28;20437;-73
2021/01/30 01:32:18;;;;;;;3.85;0.80;;;7.30;38.80;;;;;;5087234;28;20044;-73
2021/01/30 01:34:45;;;;;;;2.22;0.60;;;7.20;38.30;;;;;;5087111;28;20395;-73
2021/01/30 01:37:12;;;;;;;4.70;1.35;;;7.20;38.00;;;;;;5089700;28;20078;-73
2021/01/30 01:39:40;;;;;;;3.30;1.00;;;7.30;37.40;;;;;;5090444;28;20493;-73
2021/01/30 01:42:11;;;;;;;4.45;0.90;;;7.30;36.90;;;;;;5087846;28;20039;-72
2021/01/30 01:44:39;;;;;;;2.63;0.65;;;7.20;37.80;;;;;;5083895;28;20048;-73
2021/01/30 01:47:09;;;;;;;2.13;0.70;;;7.30;36.00;;;;;;5088612;28;20044;-73
2021/01/30 01:49:40;;;;;;;1.90;1.00;;;7.30;36.10;;;;;;5085786;28;20044;-74
2021/01/30 01:52:15;;;;;;;2.95;0.93;;;7.30;36.30;;;;;;5088085;28;20086;-73
2021/01/30 01:54:43;;;;;;;2.85;0.80;;;7.40;34.90;;;;;;5087093;28;20054;-73
2021/01/30 01:57:14;;;;;;;1.13;0.60;;;7.30;36.10;;;;;;5086497;28;20044;-73
2021/01/30 01:59:46;;;;;;;3.20;0.60;;;7.30;35.70;;;;;;5086906;28;20056;-73
2021/01/30 02:02:14;;;;;;;3.08;0.80;;;7.20;37.10;;;;;;5087310;28;20044;-72
2021/01/30 02:04:47;;;;;;;3.63;0.70;;;7.20;37.30;;;;;;5085301;28;20075;-73
2021/01/30 02:07:14;;;;;;;2.22;0.60;;;7.20;38.10;;;;;;5086329;28;21261;-73
2021/01/30 02:09:41;;;;;;;1.65;1.00;;;7.20;38.10;;;;;;5089854;28;20063;-73
2021/01/30 02:12:11;;;;;;;1.77;0.75;;;7.20;37.60;;;;;;5084685;28;20048;-73
2021/01/30 02:14:40;;;;;;;4.90;1.05;;;7.30;37.90;;;;;;5085593;28;20505;-72
2021/01/30 02:17:21;;;;;;;2.60;0.73;;;7.20;38.50;;;;;;5087611;28;20046;-73
2021/01/30 02:20:37;;;;;;;3.42;1.00;;;7.20;38.70;;;;;;5087785;28;20060;-73
2021/01/30 02:23:34;;;;;;;1.27;0.88;;;7.10;39.80;;;;;;5086182;28;20506;-73
2021/01/30 02:26:28;;;;;;;3.00;0.63;;;7.10;40.70;;;;;;5083384;28;20095;-73
2021/01/30 02:29:12;;;;;;;3.78;0.77;;;7.10;39.10;;;;;;5054439;28;20059;-72
2021/01/30 02:32:00;;;;;;;3.97;0.60;;;7.10;39.20;;;;;;5086329;28;20052;-72
2021/01/30 02:35:00;;;;;;;2.65;0.40;;;7.10;37.40;;;;;;5083984;28;20127;-74
2021/01/30 02:37:36;;;;;;;2.25;0.60;;;7.20;36.90;;;;;;5073625;28;20043;-73
2021/01/30 02:40:09;;;;;;;2.15;0.70;;;7.10;37.00;;;;;;5087956;28;20044;-74
2021/01/30 02:42:42;;;;;;;1.83;0.65;;;7.10;37.40;;;;;;5086051;28;20044;-73
2021/01/30 02:45:12;;;;;;;1.00;0.60;;;7.10;38.20;;;;;;5086278;28;20391;-74
2021/01/30 02:47:45;;;;;;;1.60;0.57;;;7.20;38.10;;;;;;5087468;28;20052;-74
2021/01/30 02:50:15;;;;;;;0.93;0.43;;;7.10;37.40;;;;;;5088416;28;20383;-73
2021/01/30 02:52:45;;;;;;;2.08;0.70;;;7.20;37.50;;;;;;5087682;28;20063;-73
2021/01/30 02:55:15;;;;;;;1.70;0.57;;;7.20;37.30;;;;;;5085826;28;20044;-73
2021/01/30 02:57:44;;;;;;;2.28;0.60;;;7.10;37.30;;;;;;5086164;28;20051;-73
2021/01/30 03:00:16;;;;;;;1.40;0.30;;;7.20;36.60;;;;;;5086773;28;20056;-73
2021/01/30 03:02:44;;;;;;;0.70;0.40;;;7.10;36.60;;;;;;5086354;28;20659;-72
2021/01/30 03:05:12;;;;;;;6.65;0.93;;;7.20;36.10;;;;;;5083376;28;20056;-73
2021/01/30 03:08:06;;;;;;;0.88;0.50;;;7.20;35.10;;;;;;5088337;28;20060;-73
2021/01/30 03:10:38;;;;;;;1.75;0.50;;;7.20;34.50;;;;;;5088009;28;20056;-73
2021/01/30 03:13:11;;;;;;;3.63;0.70;;;7.30;31.50;;;;;;5087133;28;20055;-72
2021/01/30 03:15:41;;;;;;;;;;;7.30;31.50;;;;;;5086395;28;20129;-73
2021/01/30 03:18:11;;;;;;;2.00;0.82;;;7.30;33.30;;;;;;5086448;28;19938;-73
2021/01/30 03:20:42;;;;;;;1.73;0.47;;;7.20;36.70;;;;;;5087952;28;20058;-73
2021/01/30 03:23:11;;;;;;;1.38;0.50;;;7.20;37.40;;;;;;5083560;28;20059;-74
2021/01/30 03:25:40;;;;;;;1.17;0.60;;;7.10;37.80;;;;;;5084506;28;20044;-73
2021/01/30 03:28:07;;;;;;;2.45;0.50;;;7.00;38.40;;;;;;5092222;28;20509;-72
2021/01/30 03:30:34;;;;;;;0.95;0.45;;;7.00;38.90;;;;;;5089815;28;20047;-73
2021/01/30 03:33:01;;;;;;;1.77;0.90;;;7.00;39.40;;;;;;5084822;28;20158;-73
2021/01/30 03:35:28;;;;;;;0.85;0.50;;;7.00;39.70;;;;;;5088043;28;20048;-73
2021/01/30 03:37:55;;;;;;;1.88;0.57;;;7.00;39.70;;;;;;5091826;28;20075;-73
2021/01/30 03:40:24;;;;;;;0.70;0.40;;;7.00;39.70;;;;;;5092334;28;20498;-73
2021/01/30 03:42:52;;;;;;;2.30;0.80;;;6.90;39.90;;;;;;5088993;28;20482;-73
2021/01/30 03:45:22;;;;;;;1.40;0.73;;;6.90;41.10;;;;;;5090790;28;20051;-74
2021/01/30 03:47:49;;;;;;;1.10;0.70;;;6.90;42.20;;;;;;5088861;28;20051;-73
2021/01/30 03:50:17;;;;;;;3.03;0.60;;;6.90;41.70;;;;;;5091605;28;20876;-73
2021/01/30 03:52:44;;;;;;;1.65;1.02;;;6.90;44.40;;;;;;5088670;28;20066;-73
2021/01/30 03:55:12;;;;;;;2.72;0.80;;;6.80;46.60;;;;;;5087652;28;20405;-73
2021/01/30 03:57:41;;;;;;;2.47;0.40;;;6.70;47.80;;;;;;5089907;28;20063;-74
2021/01/30 04:00:10;;;;;;;2.35;0.45;;;6.70;49.60;;;;;;5090908;28;20048;-73
2021/01/30 04:02:39;;;;;;;0.50;0.38;;;6.70;51.00;;;;;;5088373;28;20141;-72
2021/01/30 04:05:07;;;;;;;4.35;0.40;;;6.60;49.90;;;;;;5089409;28;20048;-72
2021/01/30 04:07:34;;;;;;;1.48;0.50;;;6.60;51.10;;;;;;5091899;28;20048;-72
2021/01/30 04:10:01;;;;;;;1.40;0.60;;;6.50;52.60;;;;;;5089285;28;20174;-72
2021/01/30 04:12:28;;;;;;;0.70;0.40;;;6.50;53.90;;;;;;5085984;28;20044;-74
2021/01/30 04:14:55;;;;;;;1.17;0.30;;;6.50;55.20;;;;;;5089523;28;20066;-72
2021/01/30 04:17:22;;;;;;;1.23;0.50;;;6.50;54.50;;;;;;5089380;28;20052;-72
2021/01/30 04:19:49;;;;;;;0.88;0.45;;;6.40;54.00;;;;;;5091826;28;20040;-72
2021/01/30 04:22:16;;;;;;;3.20;1.20;;;6.50;53.20;;;;;;5088020;28;20040;-71
2021/01/30 04:24:44;;;;;;;0.75;0.28;;;6.50;53.00;;;;;;5086808;28;20059;-72
2021/01/30 04:27:12;;;;;;;1.15;0.47;;;6.50;52.60;;;;;;5091108;28;20075;-72
2021/01/30 04:29:39;;;;;;;2.97;0.40;;;6.50;52.30;;;;;;5089144;28;20051;-72
2021/01/30 04:32:07;;;;;;;2.28;0.45;;;6.50;51.60;;;;;;5084942;28;20047;-72
2021/01/30 04:34:34;;;;;;;0.52;0.40;;;6.50;50.80;;;;;;5087938;28;20071;-72
2021/01/30 04:37:00;;;;;;;0.80;0.30;;;6.50;50.10;;;;;;5087452;28;20505;-72
2021/01/30 04:39:27;;;;;;;2.38;0.40;;;6.50;49.20;;;;;;5090932;28;20055;-72
2021/01/30 04:42:00;;;;;;;0.50;0.30;;;6.50;49.30;;;;;;5089134;28;20059;-73
2021/01/30 04:44:33;;;;;;;1.08;0.32;;;6.50;49.00;;;;;;5086751;28;20544;-73
2021/01/30 04:47:18;;;;;;;1.55;0.32;;;6.60;47.90;;;;;;5089123;28;20044;-72
2021/01/30 04:49:53;;;;;;;2.70;0.32;;;6.60;47.80;;;;;;5089714;28;20043;-73
2021/01/30 04:52:35;;;;;;;0.88;0.40;;;6.60;47.60;;;;;;5082853;28;20040;-73
2021/01/30 04:55:14;;;;;;;0.68;0.28;;;6.60;47.60;;;;;;5087179;28;20426;-73
2021/01/30 04:57:53;;;;;;;2.47;0.40;;;6.60;46.20;;;;;;5089123;28;20064;-72
2021/01/30 05:00:31;;;;;;;0.88;0.50;;;6.60;47.60;;;;;;5089653;28;20403;-72
2021/01/30 05:03:32;;;;;;;0.93;0.30;;;6.60;46.60;;;;;;5085408;28;20060;-72
2021/01/30 05:06:10;;;;;;;0.63;0.50;;;6.60;47.60;;;;;;5087109;28;20040;-72
2021/01/30 05:08:43;;;;;;;1.70;0.50;;;6.60;46.80;;;;;;5086376;28;20076;-73
2021/01/30 05:11:15;;;;;;;2.83;0.30;;;6.60;47.60;;;;;;5088220;28;20067;-72
2021/01/30 05:13:44;;;;;;;1.30;0.40;;;6.60;47.60;;;;;;5079578;28;20048;-72
2021/01/30 05:16:18;;;;;;;2.53;0.32;;;6.60;47.60;;;;;;5090377;28;20048;-71
2021/01/30 05:18:51;;;;;;;2.05;0.30;;;6.60;47.60;;;;;;5090301;28;20040;-73
2021/01/30 05:21:21;;;;;;;2.15;0.30;;;6.60;46.90;;;;;;5088452;28;20059;-72
2021/01/30 05:23:51;;;;;;;2.00;0.50;;;6.60;47.60;;;;;;5085061;28;20059;-73
2021/01/30 05:26:26;;;;;;;2.75;0.70;;;6.60;47.10;;;;;;5089287;28;20048;-73
2021/01/30 05:29:05;;;;;;;5.55;1.25;;;6.60;46.10;;;;;;5088907;28;20055;-72
2021/01/30 05:31:45;;;;;;;2.30;0.70;;;6.70;43.70;;;;;;5084540;28;20055;-73
2021/01/30 05:34:15;;;;;;;3.78;1.08;;;6.70;44.20;;;;;;5086891;28;20050;-73
2021/01/30 05:36:46;;;;;;;5.85;1.00;;;6.70;44.10;;;;;;5088804;28;20048;-72
2021/01/30 05:39:29;;;;;;;4.30;0.82;;;6.80;41.80;;;;;;5090765;28;20417;-73
2021/01/30 05:42:04;;;;;;;2.60;1.13;;;6.80;42.10;;;;;;5085607;28;20056;-73
2021/01/30 05:44:42;;;;;;;4.40;1.35;;;6.70;40.90;;;;;;5085993;28;20334;-73
2021/01/30 05:47:14;;;;;;;6.38;0.95;;;6.80;40.40;;;;;;5085961;28;20051;-73
2021/01/30 05:49:55;;;;;;;7.05;1.10;;;6.80;39.60;;;;;;5090238;28;20131;-72
2021/01/30 05:52:28;;;;;;;4.63;0.95;;;6.80;38.40;;;;;;5083025;28;20509;-72
2021/01/30 05:54:56;;;;;;;6.35;1.42;;;6.80;38.00;;;;;;5083501;28;20064;-72
2021/01/30 05:57:23;;;;;;;4.43;0.95;;;6.90;38.60;;;;;;5088797;28;20490;-72
2021/01/30 05:59:54;;;;;;;8.65;1.55;;;6.80;38.40;;;;;;5088658;28;20044;-73
2021/01/30 06:02:24;;;;;;;5.65;1.52;;;6.80;38.20;;;;;;5086208;28;20046;-73
2021/01/30 06:04:52;;;;;;;8.95;1.85;;;6.80;39.50;;;;;;5084867;28;20044;-74
2021/01/30 06:07:27;;;;;;;6.50;1.38;;;6.70;39.30;;;;;;5088646;28;20044;-74
2021/01/30 06:09:54;;;;;;;5.68;1.60;;;6.80;39.50;;;;;;5089956;28;20058;-73
2021/01/30 06:12:25;;;;;;;10.57;1.27;;;6.80;39.50;;;;;;5086558;28;20559;-73
2021/01/30 06:14:53;;;;;;;4.32;1.23;;;6.80;38.40;;;;;;5086699;28;20044;-73
2021/01/30 06:17:31;;;;;;;7.78;2.10;;;6.70;38.10;;;;;;5089069;28;20048;-73
2021/01/30 06:20:14;;;;;;;7.55;1.73;;;6.70;36.80;;;;;;5086124;28;20464;-73
2021/01/30 06:22:41;;;;;;;5.47;1.13;;;6.80;36.00;;;;;;5086661;28;20047;-73
2021/01/30 06:25:22;;;;;;;11.15;1.55;;;6.80;36.40;;;;;;5087456;28;20052;-75
2021/01/30 06:27:52;;;;;;;7.63;1.52;;;6.80;35.30;;;;;;5084695;28;20048;-73
2021/01/30 06:30:33;;;;;;;6.28;1.98;;;6.80;35.70;;;;;;5088575;28;20044;-73
2021/01/30 06:33:04;;;;;;;4.97;1.33;;;6.70;36.40;;;;;;5084096;28;20061;-73
2021/01/30 06:35:38;;;;;;;5.32;1.60;;;6.70;35.30;;;;;;5088340;28;20052;-74
2021/01/30 06:38:17;;;;;;;10.02;2.03;;;6.70;34.50;;;;;;5088816;28;20127;-73
2021/01/30 06:40:53;;;;;;;9.25;2.20;;;6.70;35.40;;;;;;5086613;28;20054;-72
2021/01/30 06:43:28;;;;;;;5.57;1.50;;;6.60;35.70;;;;;;5082490;28;20055;-72
2021/01/30 06:46:05;;;;;;;14.07;1.83;;;6.60;35.20;;;;;;5086443;28;20517;-73
2021/01/30 06:48:37;;;;;;;6.38;1.40;;;6.50;36.10;;;;;;5088824;28;20048;-73
2021/01/30 06:51:27;;;;;;;5.38;1.63;;;6.50;36.20;;;;;;5085790;28;20047;-73
2021/01/30 06:53:56;;;;;;;5.47;1.70;;;6.50;36.90;;;;;;5084343;28;20474;-73
2021/01/30 06:56:26;;;;;;;7.22;1.42;;;6.50;36.20;;;;;;5089696;28;20056;-71
2021/01/30 06:59:03;;;;;;;7.18;1.73;;;6.50;35.40;;;;;;5088320;28;20043;-75
2021/01/30 07:01:39;;;;;;;4.13;1.50;;;6.50;35.90;;;;;;5084517;28;20040;-72
2021/01/30 07:04:55;;;;;;;7.88;1.75;;;6.50;35.20;;;;;;5085910;28;20066;-72
2021/01/30 07:07:26;;;;;;;6.60;1.40;;;6.50;35.30;;;;;;5072375;28;20062;-75
2021/01/30 07:10:13;;;;;;;8.90;2.10;;;6.60;34.80;;;;;;5088787;28;20666;-76
2021/01/30 07:12:49;;;;;;;6.82;1.95;;;6.60;33.70;;;;;;5081002;28;20490;-73
2021/01/30 07:15:24;;;;;;;6.63;1.92;;;6.60;34.30;;;;;;5085875;28;20059;-73
2021/01/30 07:18:17;;;;;;;9.50;1.67;;;6.60;35.00;;;;;;5088765;28;20402;-73
2021/01/30 07:21:10;;;;;;;6.90;1.95;;;6.60;36.50;;;;;;5087594;28;20090;-73
2021/01/30 07:23:49;;;;;;;9.85;2.00;;;6.60;34.90;;;;;;5083431;28;20157;-72
2021/01/30 07:26:22;;;;;;;6.55;2.30;;;6.60;35.50;;;;;;5085115;28;20041;-72
2021/01/30 07:28:56;;;;;;;12.90;1.92;;;6.60;35.20;;;;;;5087022;28;20054;-73
2021/01/30 07:31:29;;;;;;;9.77;1.98;;;6.60;35.60;;;;;;5083928;28;20040;-72
2021/01/30 07:34:05;;;;;;;8.77;2.15;;;6.60;35.60;;;;;;5084319;28;20052;-72
2021/01/30 07:36:36;;;;;;;11.05;2.20;;;6.70;34.50;;;;;;5089104;28;20418;-72
2021/01/30 07:39:12;;;;;;;8.50;2.42;;;6.70;34.70;;;;;;5087128;28;20067;-71
2021/01/30 07:41:49;;;;;;;10.75;1.85;;;6.70;34.50;;;;;;5083001;28;20044;-73
2021/01/30 07:44:20;;;;;;;8.57;1.95;;;6.70;33.70;;;;;;5084986;28;20048;-74
2021/01/30 07:46:59;;;;;;;9.13;2.15;;;6.70;35.30;;;;;;5087623;28;20044;-73
2021/01/30 07:49:28;;;;;;;7.63;1.98;;;6.70;34.30;;;;;;5087656;28;20135;-74
2021/01/30 07:52:00;;;;;;;12.63;1.83;;;6.70;34.70;;;;;;5084447;28;21352;-73
2021/01/30 07:54:27;;;;;;;9.77;2.22;;;6.80;34.70;;;;;;5081847;28;20048;-73
2021/01/30 07:57:14;;;;;;;7.55;1.95;;;6.80;34.10;;;;;;5087110;28;20086;-73
2021/01/30 07:59:52;;;;;;;5.22;1.65;;;6.90;34.30;;;;;;5086658;28;20048;-73
2021/01/30 08:02:51;;;;;;;6.25;1.60;;;6.90;33.40;;;;;;5083122;28;20052;-73
2021/01/30 08:05:37;;;;;;;14.80;1.98;;;7.00;33.60;;;;;;5086406;28;20048;-73
2021/01/30 08:08:23;;;;;;;11.95;1.85;;;7.00;32.70;;;;;;5086186;28;20040;-73
2021/01/30 08:10:57;;;;;;;8.13;1.77;;;7.00;32.50;;;;;;5086117;28;20041;-74
2021/01/30 08:13:45;;;;;;;5.13;1.63;;;7.00;31.40;;;;;;5087203;28;20399;-73
2021/01/30 08:16:22;;;;;;;9.88;1.83;;;7.10;31.40;;;;;;5091457;28;20048;-73
2021/01/30 08:18:50;;;;;;;9.73;1.83;;;7.10;31.30;;;;;;5091427;28;20075;-74
2021/01/30 08:21:26;;;;;;;7.95;2.17;;;7.20;29.80;;;;;;5092517;28;20045;-74
2021/01/30 08:24:01;;;;;;;6.65;1.95;;;7.20;29.70;;;;;;5085161;28;20094;-74
2021/01/30 08:26:33;;;;;;;8.43;2.20;;;7.30;29.80;;;;;;5089315;28;20078;-73
2021/01/30 08:29:13;;;;;;;12.32;2.17;;;7.30;29.90;;;;;;5089855;28;20571;-73
2021/01/30 08:31:43;;;;;;;5.38;2.03;;;7.40;29.50;;;;;;5086991;28;20052;-72
2021/01/30 08:34:29;;;;;;;7.95;1.67;;;7.50;28.30;;;;;;5084408;28;21652;-73
2021/01/30 08:36:57;;;;;;;10.20;1.92;;;7.60;28.60;;;;;;5090288;28;20056;-73
2021/01/30 08:39:28;;;;;;;6.35;1.65;;;7.60;28.10;;;;;;5088099;28;20049;-73
2021/01/30 08:42:00;;;;;;;8.02;2.03;;;7.60;27.70;;;;;;5085956;28;20052;-74
2021/01/30 08:44:36;;;;;;;6.97;1.70;;;7.60;27.30;;;;;;5087568;28;20055;-73
2021/01/30 08:47:18;;;;;;;8.25;2.45;;;7.70;27.30;;;;;;5090190;28;20056;-73
2021/01/30 08:50:13;;;;;;;11.70;3.17;;;7.70;28.10;;;;;;5088180;28;20052;-74
2021/01/30 08:52:47;;;;;;;6.85;2.25;;;7.80;27.10;;;;;;5054404;28;20421;-73
2021/01/30 08:55:47;;;;;;;8.50;2.47;;;7.80;27.90;;;;;;5088665;28;20048;-73
2021/01/30 08:58:49;;;;;;;11.88;2.08;;;7.90;26.90;;;;;;5089398;28;20066;-73
2021/01/30 09:01:43;;;;;;;7.63;2.15;;;7.90;27.20;;;;;;5089620;28;20036;-74
2021/01/30 09:04:47;;;;;;;6.82;2.17;;;8.00;27.30;;;;;;5086105;28;20150;-73
2021/01/30 09:07:42;;;;;;;9.63;2.42;;;8.10;26.90;;;;;;5086717;28;20049;-73
2021/01/30 09:10:33;;;;;;;14.45;2.47;;;8.10;26.20;;;;;;5088214;28;20052;-72
2021/01/30 09:13:09;;;;;;;7.28;1.90;;;8.10;27.60;;;;;;5081449;28;20080;-73
2021/01/30 09:16:10;;;;;;;9.38;2.30;;;8.10;25.00;;;;;;5087917;28;20048;-74
2021/01/30 09:18:56;;;;;;;6.35;2.15;;;8.20;26.50;;;;;;5087410;28;20105;-73
2021/01/30 09:21:40;;;;;;;9.40;2.58;;;8.20;26.50;;;;;;5090034;28;20040;-72
2021/01/30 09:24:58;;;;;;;10.82;2.00;;;8.20;26.80;;;;;;5083518;28;20048;-72
2021/01/30 09:27:28;;;;;;;12.77;2.90;;;8.30;25.90;;;;;;5088368;28;20048;-72
2021/01/30 09:30:01;;;;;;;9.35;2.90;;;8.30;25.20;;;;;;5090366;28;20071;-73
2021/01/30 09:32:43;;;;;;;10.65;2.88;;;8.30;25.10;;;;;;5086748;28;20146;-72
2021/01/30 09:35:17;;;;;;;9.48;2.30;;;8.30;25.10;;;;;;5086540;28;20082;-73
2021/01/30 09:37:46;;;;;;;7.22;2.00;;;8.50;23.40;;;;;;5086702;28;20052;-74
2021/01/30 09:40:23;;;;;;;11.90;2.67;;;8.50;23.30;;;;;;5090524;28;20055;-73
2021/01/30 09:43:02;;;;;;;6.05;1.83;;;8.70;24.10;;;;;;5084477;28;20498;-73
2021/01/30 09:45:30;;;;;;;10.57;1.90;;;8.70;23.30;;;;;;5087534;28;20060;-72
2021/01/30 09:48:02;;;;;;;12.02;2.30;;;8.70;22.90;;;;;;5086876;28;20048;-74
2021/01/30 09:50:32;;;;;;;4.93;1.50;;;8.70;22.20;;;;;;5085576;28;20077;-73
2021/01/30 09:53:05;;;;;;;7.40;2.13;;;8.80;21.70;;;;;;5084133;28;20043;-75
2021/01/30 09:55:31;;;;;;;11.93;2.78;;;8.70;21.30;;;;;;5084621;28;20392;-72
2021/01/30 09:58:04;;;;;;;8.77;2.33;;;8.80;21.10;;;;;;5089911;28;20052;-75
2021/01/30 10:00:34;;;;;;;10.98;2.45;;;8.90;21.20;;;;;;5087226;28;20452;-73
2021/01/30 10:03:06;;;;;;;5.90;1.80;;;8.90;21.30;;;;;;5085895;28;20052;-75
2021/01/30 10:05:33;;;;;;;13.93;3.00;;;8.80;21.40;;;;;;5088124;28;20047;-73
2021/01/30 10:08:13;;;;;;;6.03;2.10;;;8.90;22.10;;;;;;5087121;28;20055;-72
2021/01/30 10:10:40;;;;;;;10.15;2.33;;;9.00;22.10;;;;;;5087352;28;20039;-72
2021/01/30 10:13:13;;;;;;;9.68;2.55;;;9.10;20.90;;;;;;5081800;28;20044;-72
2021/01/30 10:15:43;;;;;;;9.48;2.15;;;9.20;20.20;;;;;;5083807;28;20368;-73
2021/01/30 10:18:14;;;;;;;12.93;3.03;;;9.20;20.70;;;;;;5087233;28;20260;-73
2021/01/30 10:20:44;;;;;;;9.05;2.47;;;9.20;21.00;;;;;;5087579;28;20066;-74
2021/01/30 10:23:11;;;;;;;9.55;2.22;;;9.30;21.80;;;;;;5083877;28;20040;-73
2021/01/30 10:25:39;;;;;;;7.10;2.28;;;9.20;22.30;;;;;;5084243;28;20517;-74
2021/01/30 10:28:08;;;;;;;7.22;2.30;;;9.30;22.90;;;;;;5085637;28;20093;-72
2021/01/30 10:30:36;;;;;;;8.73;1.83;;;9.10;21.90;;;;;;5087617;28;20483;-73
2021/01/30 10:33:07;;;;;;;8.63;2.38;;;9.20;24.80;;;;;;5083588;28;20052;-73
2021/01/30 10:35:42;;;;;;;8.50;2.40;;;9.10;24.10;;;;;;5083132;28;20048;-72
2021/01/30 10:38:11;;;;;;;6.93;2.35;;;9.10;24.60;;;;;;5085757;28;20054;-72
2021/01/30 10:40:43;;;;;;;10.75;3.00;;;8.80;26.10;;;;;;5083971;28;20475;-72
2021/01/30 10:43:17;;;;;;;8.50;2.25;;;8.70;28.30;;;;;;5080517;28;20505;-73
2021/01/30 10:45:52;;;;;;;7.95;2.35;;;8.70;30.00;;;;;;5082966;28;20643;-72
2021/01/30 10:48:22;;;;;;;10.85;2.83;;;8.40;30.40;;;;;;5084833;28;20044;-72
2021/01/30 10:50:51;;;;;;;10.23;2.72;;;8.50;33.00;;;;;;5087910;28;20044;-74
2021/01/30 10:53:25;;;;;;;8.45;2.75;;;8.50;31.60;;;;;;5084932;28;20047;-72
2021/01/30 10:55:52;;;;;;;14.00;5.13;;;8.40;33.70;;;;;;5082501;28;20086;-73
2021/01/30 10:58:29;;;;;;;14.50;3.30;;;8.40;35.40;;;;;;5087889;28;20067;-73
2021/01/30 11:01:01;;;;;;;9.82;2.30;;;8.50;36.70;;;;;;5084255;28;20064;-71
2021/01/30 11:03:40;;;;;;;11.00;2.65;;;8.50;34.50;;;;;;5081675;28;20071;-72
2021/01/30 11:06:16;;;;;;;8.43;2.42;;;8.30;37.40;;;;;;5078410;28;20075;-71
2021/01/30 11:08:43;;;;;;;7.78;1.75;;;8.40;37.00;;;;;;5084117;28;20044;-73
2021/01/30 11:11:19;;;;;;;4.78;1.42;;;8.20;37.10;;;;;;5085699;28;20054;-73
2021/01/30 11:13:46;;;;;;;9.73;1.45;;;8.00;34.70;;;;;;5081001;28;20088;-73
2021/01/30 11:16:17;;;;;;;3.38;1.00;;;8.00;34.00;;;;;;5083017;28;20052;-73
2021/01/30 11:18:47;;;;;;;5.75;1.27;;;8.00;35.00;;;;;;5083752;28;20051;-71
2021/01/30 11:21:31;;;;;;;6.90;1.70;;;7.90;35.40;;;;;;5086578;28;20044;-73
2021/01/30 11:24:14;;;;;;;4.82;1.42;;;8.10;40.00;;;;;;5085792;28;20414;-72
2021/01/30 11:26:43;;;;;;;5.00;1.33;;;8.00;38.70;;;;;;5083986;28;20052;-73
2021/01/30 11:29:37;;;;;;;5.30;1.52;;;7.90;40.40;;;;;;5084594;28;20044;-72
2021/01/30 11:32:08;;;;;;;8.18;2.92;;;8.10;42.50;;;;;;5082561;28;20055;-72
2021/01/30 11:34:35;;;;;;;5.10;1.67;;;8.10;40.60;;;;;;5083203;28;20105;-73
2021/01/30 11:37:05;;;;;;;6.05;1.40;;;7.90;41.80;;;;;;5087764;28;20555;-74
2021/01/30 11:39:35;;;;;;;7.68;2.05;;;8.00;43.10;;;;;;5087193;28;20394;-73
2021/01/30 11:42:03;;;;;;;4.57;3.20;;;8.00;44.40;;;;;;5085967;28;20402;-73
2021/01/30 11:44:30;;;;;;;9.68;2.40;;;8.00;46.40;;;;;;5082734;28;20056;-73
2021/01/30 11:46:58;;;;;;;5.90;2.30;;;7.80;46.40;;;;;;5087081;28;20105;-72
2021/01/30 11:49:25;;;;;;;7.32;1.92;;;8.00;48.50;;;;;;5091275;28;20040;-72
2021/01/30 11:51:52;;;;;;;10.27;1.98;;;8.20;49.00;;;;;;5080912;28;20043;-73
2021/01/30 11:54:20;;;;;;;6.45;1.60;;;8.10;46.80;;;;;;5084635;28;20403;-71
2021/01/30 11:56:47;;;;;;;5.68;1.92;;;7.90;44.10;;;;;;5092215;28;20044;-72
2021/01/30 11:59:14;;;;;;;5.45;1.40;;;8.00;50.00;;;;;;5089511;28;20052;-73
2021/01/30 12:01:42;;;;;;;5.05;1.50;;;8.20;50.30;;;;;;5087912;28;20044;-72
2021/01/30 12:04:10;;;;;;;9.25;2.13;;;8.30;46.90;;;;;;5089843;28;20063;-72
2021/01/30 12:06:37;;;;;;;8.75;2.13;;;8.10;45.60;;;;;;5089712;28;20054;-73
2021/01/30 12:09:05;;;;;;;7.85;1.58;;;7.90;47.50;;;;;;5089594;28;20045;-73
2021/01/30 12:11:33;;;;;;;9.88;1.85;;;7.90;50.70;;;;;;5090162;28;20048;-71
2021/01/30 12:14:00;;;;;;;5.38;1.80;;;8.00;49.90;;;;;;5089161;28;20056;-71
2021/01/30 12:16:27;;;;;;;8.23;2.05;;;8.10;51.20;;;;;;5083694;28;20122;-71
2021/01/30 12:18:55;;;;;;;5.40;1.50;;;8.20;50.00;;;;;;5086430;28;20052;-72
2021/01/30 12:21:22;;;;;;;7.60;2.20;;;8.20;45.50;;;;;;5088543;28;20052;-72
2021/01/30 12:23:49;;;;;;;7.93;2.33;;;8.20;50.70;;;;;;5084522;28;21184;-72
2021/01/30 12:26:22;;;;;;;12.30;4.95;;;8.20;52.30;;;;;;5084234;28;20044;-72
2021/01/30 12:28:51;;;;;;;8.10;2.90;;;8.10;49.70;;;;;;5086228;28;20473;-72
2021/01/30 12:31:18;;;;;;;3.97;1.30;;;8.30;52.20;;;;;;5085065;28;20642;-73
2021/01/30 12:33:45;;;;;;;3.72;1.38;;;8.30;44.30;;;;;;5084643;28;20048;-71
2021/01/30 12:36:12;;;;;;;5.22;1.20;;;8.50;43.60;;;;;;5084967;28;20048;-71
2021/01/30 12:38:39;;;;;;;5.22;1.25;;;8.40;39.00;;;;;;5087422;28;20056;-72
2021/01/30 12:41:07;;;;;;;8.15;1.35;;;8.40;42.10;;;;;;5088956;28;20055;-72
2021/01/30 12:43:34;;;;;;;6.28;1.85;;;8.40;42.10;;;;;;5079754;28;20048;-72
2021/01/30 12:46:01;;;;;;;7.30;1.67;;;8.30;40.80;;;;;;5085331;28;20040;-73
2021/01/30 12:48:28;;;;;;;3.00;1.33;;;8.40;42.70;;;;;;5086347;28;20824;-72
2021/01/30 12:50:57;;;;;;;6.20;1.63;;;8.30;39.30;;;;;;5086642;28;20525;-73
2021/01/30 12:53:24;;;;;;;6.57;1.90;;;8.30;43.50;;;;;;5078969;28;20081;-72
2021/01/30 12:55:51;;;;;;;9.82;1.50;;;8.20;44.90;;;;;;5083632;28;20060;-73
2021/01/30 12:58:21;;;;;;;4.95;1.45;;;8.20;45.90;;;;;;5082347;28;20051;-72
2021/01/30 13:00:49;;;;;;;6.38;1.38;;;8.20;49.80;;;;;;5086706;28;20422;-71
2021/01/30 13:03:17;;;;;;;4.22;1.30;;;8.20;47.70;;;;;;5083901;28;20126;-73
2021/01/30 13:05:44;;;;;;;6.72;1.27;;;8.20;49.00;;;;;;5086239;28;20163;-72
2021/01/30 13:08:12;;;;;;;5.78;1.30;;;8.20;47.50;;;;;;5088352;28;20044;-72
2021/01/30 13:10:39;;;;;;;6.88;1.88;;;8.00;48.40;;;;;;5088804;28;20058;-72
2021/01/30 13:13:06;;;;;;;4.20;1.55;;;7.90;46.90;;;;;;5081074;28;20079;-73
2021/01/30 13:15:34;;;;;;;6.75;2.22;;;7.90;48.70;;;;;;5079911;28;20425;-72
2021/01/30 13:18:02;;;;;;;5.72;2.22;;;7.90;47.60;;;;;;5085796;28;20052;-72
2021/01/30 13:20:30;;;;;;;6.10;2.67;;;8.00;52.60;;;;;;5086240;28;20044;-71
2021/01/30 13:22:59;;;;;;;4.95;1.20;;;7.90;54.80;;;;;;5080195;28;20131;-72
2021/01/30 13:25:26;;;;;;;5.13;1.33;;;7.80;47.40;;;;;;5082946;28;20048;-73